Westboro, Missouri
Current Conditions -  °F | °C
As of 3:55 AM on Monday 22 Dec 2014 (Local Time) from KSDA Reporting Station
Haze Haze  
Wind Chill: 36°   Ceiling: 1000
Heat Index: 43°   Visibility: 4mi
Dew Point: 41°   Wind: 14mph
Humidity: 93%   Direction: 150°SSE
Pressure: 29.61"   Gusts: 20mph
Location:  40.53°N, 95.32°W
Report Text: KSDA 220955Z AUTO 15012G17KT 4SM BR OVC010 06/05 A2961 RMK AO2
Loading
Personal Weather Stations






























Interactive Weather Map New forecast layout! Learn more

10-Day Weather Forecast

Advertisements
Track Severe Weather on mobile